Portada
METAR-TAF:

METAR-TAF

Aeroports :

White Plains, Nova York, Estats Units d'Amèrica

latitud: 41-04-01N, longitud: 073-42-27W, altitud: 134 m

Observació

L'informe es va fer fa 35 minuts, a les 23:56 UTC
Vent 17 kt del Oest/Nord-Oest amb ràfegues de 23 kt
Temperatura -1°C
Humitat 40%
Pressió 1010 hPa
Visibilitat: 16.1 km
Cel clar

METAR: KHPN 042356Z 30017G23KT 10SM CLR M01/M13 A2982 RMK AO2 PK WND 30027/2305 SLP104 T10061128 10050 21006 53015

Hora: 19:31 (00:31 UTC)

Pronòstic

L'informe es va fer fa 54 minuts, a les 23:37 UTC
Pronòstic vàlid del 05 a les 00 UTC al 05 a les 24 UTC
Vent 18 kt del Oest/Nord-Oest amb ràfegues de 27 kt
Visibilitat: 10 km
Cel clar
A partir de les 05 a les 1000 UTC
Vent 15 kt del Nord-Oest amb ràfegues de 25 kt
Visibilitat: 10 km
Cel clar
A partir de les 05 a les 1600 UTC
Vent 17 kt del Oest/Nord-Oest amb ràfegues de 26 kt
Visibilitat: 10 km
Cel clar

TAF: KHPN 042337Z 0500/0524 30018G27KT P6SM SKC FM051000 31015G25KT P6SM SKC FM051600 30017G26KT P6SM SKC AMD NOT SKED

Observacions i pronòstics meteorològics de més de 4000 aeroports (METAR i TAF).

Les estacions disponibles són els punts grocs i vermells al mapa.

Posi el ratolí al punt desitjat per veure el nom de l'estació.

Feu clic per veure les observacions i els pronòstics meteorològics.

Per canviar el mapa: feu clic els botons verds amb una creu de color negre per apropar; al botó verd amb un guió per allunyar la imatge; o en les fletxes verdes per a mapes adjacents.


METAR-TAF: